Time;durP1;ratioP1;P1;durP2;ratioP2;P2;SDS_P1;SDS_P2;PMS_P1;PMS_P2;Temp;Humidity;BMP_temperature;BMP_pressure;BME280_temperature;BME280_humidity;BME280_pressure;Samples;Min_cycle;Max_cycle;Signal;HPM_P1;HPM_P2
2023/03/08 00:00:39;;;;;;;16.65;7.15;;;;;;;;;;5113865;28;20489;-67
2023/03/08 00:03:06;;;;;;;12.70;6.85;;;;;;;;;;5113022;28;20134;-67
2023/03/08 00:05:33;;;;;;;13.43;6.18;;;;;;;;;;5113639;28;20051;-67
2023/03/08 00:08:01;;;;;;;10.90;6.47;;;;;;;;;;5112988;28;20043;-67
2023/03/08 00:10:27;;;;;;;12.98;6.35;;;;;;;;;;5113634;28;20050;-67
2023/03/08 00:12:54;;;;;;;8.85;5.60;;;;;;;;;;5112816;28;20043;-67
2023/03/08 00:15:20;;;;;;;12.00;6.30;;;;;;;;;;5113573;28;20414;-67
2023/03/08 00:17:47;;;;;;;10.85;5.72;;;;;;;;;;5112836;28;20547;-67
2023/03/08 00:20:14;;;;;;;11.00;6.13;;;;;;;;;;5113419;28;20044;-67
2023/03/08 00:22:42;;;;;;;12.73;5.80;;;;;;;;;;5112882;28;20067;-67
2023/03/08 00:25:11;;;;;;;10.85;6.18;;;;;;;;;;5112941;28;20043;-69
2023/03/08 00:27:38;;;;;;;10.00;5.80;;;;;;;;;;5111508;28;20134;-67
2023/03/08 00:30:06;;;;;;;11.82;5.75;;;;;;;;;;5113255;28;20043;-67
2023/03/08 00:32:33;;;;;;;10.45;5.90;;;;;;;;;;5112622;28;20059;-67
2023/03/08 00:34:59;;;;;;;11.25;5.88;;;;;;;;;;5112874;28;20047;-67
2023/03/08 00:37:26;;;;;;;10.77;6.30;;;;;;;;;;5112320;28;20047;-67
2023/03/08 00:39:53;;;;;;;12.60;6.65;;;;;;;;;;5112610;28;20039;-67
2023/03/08 00:42:22;;;;;;;12.05;6.43;;;;;;;;;;5112658;28;20043;-67
2023/03/08 00:44:48;;;;;;;11.90;6.15;;;;;;;;;;5112404;28;20044;-67
2023/03/08 00:47:16;;;;;;;10.15;5.13;;;;;;;;;;5112898;28;20047;-67
2023/03/08 00:49:42;;;;;;;8.57;5.40;;;;;;;;;;5112551;28;20046;-67
2023/03/08 00:52:10;;;;;;;10.90;5.78;;;;;;;;;;5112709;28;20050;-66
2023/03/08 00:54:37;;;;;;;11.93;6.25;;;;;;;;;;5112108;28;20046;-67
2023/03/08 00:57:04;;;;;;;8.23;5.32;;;;;;;;;;5112434;28;20135;-67
2023/03/08 00:59:32;;;;;;;11.30;5.53;;;;;;;;;;5112387;28;20039;-67
2023/03/08 01:01:58;;;;;;;8.77;5.40;;;;;;;;;;5112532;28;20253;-67
2023/03/08 01:04:25;;;;;;;10.10;5.50;;;;;;;;;;5111789;28;20054;-67
2023/03/08 01:06:51;;;;;;;9.80;4.63;;;;;;;;;;5112251;28;20536;-67
2023/03/08 01:09:18;;;;;;;9.57;5.40;;;;;;;;;;5111803;28;20048;-67
2023/03/08 01:11:45;;;;;;;10.25;5.68;;;;;;;;;;5112344;28;20039;-67
2023/03/08 01:14:11;;;;;;;9.50;5.05;;;;;;;;;;5111806;28;20048;-67
2023/03/08 01:16:40;;;;;;;10.50;5.45;;;;;;;;;;5111987;28;20073;-67
2023/03/08 01:19:07;;;;;;;10.52;5.20;;;;;;;;;;5111781;28;20044;-67
2023/03/08 01:21:33;;;;;;;8.77;5.07;;;;;;;;;;5112228;28;20040;-67
2023/03/08 01:24:00;;;;;;;15.90;5.40;;;;;;;;;;5111274;28;20043;-67
2023/03/08 01:26:27;;;;;;;10.52;5.60;;;;;;;;;;5111602;28;20048;-67
2023/03/08 01:28:54;;;;;;;10.07;5.07;;;;;;;;;;5111504;28;20043;-67
2023/03/08 01:31:22;;;;;;;10.35;5.13;;;;;;;;;;5111957;28;20054;-67
2023/03/08 01:33:51;;;;;;;9.20;5.53;;;;;;;;;;5111755;28;20044;-67
2023/03/08 01:36:19;;;;;;;9.65;4.93;;;;;;;;;;5111538;28;20047;-67
2023/03/08 01:38:46;;;;;;;9.52;5.43;;;;;;;;;;5111280;28;20063;-67
2023/03/08 01:41:16;;;;;;;9.73;4.95;;;;;;;;;;5111523;28;20155;-67
2023/03/08 01:43:43;;;;;;;9.85;5.15;;;;;;;;;;5111322;28;20059;-67
2023/03/08 01:46:24;;;;;;;10.00;5.78;;;;;;;;;;5111236;28;20048;-67
2023/03/08 01:48:55;;;;;;;9.20;5.07;;;;;;;;;;5111462;28;20048;-67
2023/03/08 01:51:28;;;;;;;10.57;5.57;;;;;;;;;;5111165;28;20070;-67
2023/03/08 01:53:56;;;;;;;10.68;5.53;;;;;;;;;;5111665;28;20050;-67
2023/03/08 01:56:24;;;;;;;10.98;5.55;;;;;;;;;;5111550;28;20501;-67
2023/03/08 01:58:52;;;;;;;8.80;5.25;;;;;;;;;;5111365;28;20040;-67
2023/03/08 02:01:19;;;;;;;11.40;5.57;;;;;;;;;;5111603;28;20044;-67
2023/03/08 02:03:46;;;;;;;9.75;4.93;;;;;;;;;;5111025;28;20044;-67
2023/03/08 02:06:16;;;;;;;11.85;5.85;;;;;;;;;;5111047;28;20043;-67
2023/03/08 02:08:43;;;;;;;10.45;4.75;;;;;;;;;;5111080;28;20462;-67
2023/03/08 02:11:10;;;;;;;12.15;5.55;;;;;;;;;;5111026;28;20044;-67
2023/03/08 02:13:37;;;;;;;12.13;5.00;;;;;;;;;;5111095;28;20423;-67
2023/03/08 02:16:06;;;;;;;9.20;5.40;;;;;;;;;;5110885;28;20047;-67
2023/03/08 02:18:32;;;;;;;8.15;5.28;;;;;;;;;;5111024;28;20112;-67
2023/03/08 02:20:59;;;;;;;9.68;5.18;;;;;;;;;;5110518;28;20048;-67
2023/03/08 02:23:27;;;;;;;9.90;5.53;;;;;;;;;;5111052;28;20050;-67
2023/03/08 02:25:56;;;;;;;10.60;5.60;;;;;;;;;;5110798;28;20130;-67
2023/03/08 02:28:24;;;;;;;9.35;5.60;;;;;;;;;;5110940;28;20070;-67
2023/03/08 02:30:51;;;;;;;8.20;4.80;;;;;;;;;;5110844;28;20039;-67
2023/03/08 02:33:18;;;;;;;9.82;5.07;;;;;;;;;;5110468;28;20059;-66
2023/03/08 02:35:45;;;;;;;10.40;5.45;;;;;;;;;;5110975;28;20051;-67
2023/03/08 02:38:13;;;;;;;10.27;5.47;;;;;;;;;;5110408;28;20046;-67
2023/03/08 02:40:42;;;;;;;9.35;5.30;;;;;;;;;;5110891;28;20498;-67
2023/03/08 02:43:09;;;;;;;10.40;5.70;;;;;;;;;;5110475;28;20402;-67
2023/03/08 02:45:35;;;;;;;11.25;6.15;;;;;;;;;;5110709;28;20507;-67
2023/03/08 02:48:02;;;;;;;12.20;5.53;;;;;;;;;;5110504;28;20050;-67
2023/03/08 02:50:30;;;;;;;12.45;6.07;;;;;;;;;;5110278;28;20062;-67
2023/03/08 02:52:57;;;;;;;13.52;6.25;;;;;;;;;;5113526;28;20051;-67
2023/03/08 02:55:24;;;;;;;12.77;6.05;;;;;;;;;;5114397;28;20043;-67
2023/03/08 02:57:51;;;;;;;11.93;5.95;;;;;;;;;;5113810;28;20050;-67
2023/03/08 03:00:19;;;;;;;12.95;6.20;;;;;;;;;;5114579;28;20063;-67
2023/03/08 03:02:45;;;;;;;12.70;6.40;;;;;;;;;;5114410;28;20044;-67
2023/03/08 03:05:12;;;;;;;13.48;6.63;;;;;;;;;;5114062;28;20054;-67
2023/03/08 03:07:41;;;;;;;10.77;6.03;;;;;;;;;;5114034;28;20134;-67
2023/03/08 03:10:11;;;;;;;12.93;6.30;;;;;;;;;;5113471;28;20054;-67
2023/03/08 03:12:38;;;;;;;12.07;6.45;;;;;;;;;;5114039;28;20551;-67
2023/03/08 03:15:07;;;;;;;14.00;6.35;;;;;;;;;;5113668;28;20047;-67
2023/03/08 03:17:35;;;;;;;12.85;6.47;;;;;;;;;;5109802;28;20052;-67
2023/03/08 03:20:03;;;;;;;12.45;6.20;;;;;;;;;;5093506;28;20250;-67
2023/03/08 03:22:29;;;;;;;12.38;6.20;;;;;;;;;;5093233;28;20526;-67
2023/03/08 03:24:56;;;;;;;12.80;6.63;;;;;;;;;;5093667;28;20586;-67
2023/03/08 03:27:22;;;;;;;14.02;6.43;;;;;;;;;;5092954;28;20044;-66
2023/03/08 03:29:49;;;;;;;14.48;6.78;;;;;;;;;;5093614;28;20400;-66
2023/03/08 03:32:17;;;;;;;13.65;6.90;;;;;;;;;;5092922;28;20407;-67
2023/03/08 03:34:43;;;;;;;14.75;7.25;;;;;;;;;;5092928;28;20052;-66
2023/03/08 03:37:10;;;;;;;13.75;7.28;;;;;;;;;;5092945;28;20040;-67
2023/03/08 03:39:37;;;;;;;12.73;7.07;;;;;;;;;;5093543;28;20047;-67
2023/03/08 03:42:05;;;;;;;12.23;6.68;;;;;;;;;;5092660;28;20064;-67
2023/03/08 03:44:31;;;;;;;14.65;7.65;;;;;;;;;;5093277;28;20059;-67
2023/03/08 03:46:58;;;;;;;13.07;7.03;;;;;;;;;;5093557;28;20040;-67
2023/03/08 03:49:26;;;;;;;13.02;6.88;;;;;;;;;;5092529;28;20045;-67
2023/03/08 03:51:53;;;;;;;14.50;7.18;;;;;;;;;;5092999;28;20070;-67
2023/03/08 03:54:19;;;;;;;13.85;7.30;;;;;;;;;;5092628;28;20399;-66
2023/03/08 03:56:46;;;;;;;15.40;7.68;;;;;;;;;;5093220;28;20395;-67
2023/03/08 03:59:13;;;;;;;13.75;6.28;;;;;;;;;;5092730;28;20395;-66
2023/03/08 04:01:39;;;;;;;13.48;7.18;;;;;;;;;;5093058;28;20055;-66
2023/03/08 04:04:06;;;;;;;15.57;7.90;;;;;;;;;;5092978;28;20052;-67
2023/03/08 04:06:35;;;;;;;12.55;6.93;;;;;;;;;;5092576;28;20495;-67
2023/03/08 04:09:03;;;;;;;14.25;7.05;;;;;;;;;;5093049;28;20365;-66
2023/03/08 04:11:33;;;;;;;15.63;7.78;;;;;;;;;;5093721;28;20056;-66
2023/03/08 04:14:00;;;;;;;19.15;8.10;;;;;;;;;;5093822;28;20046;-66
2023/03/08 04:16:28;;;;;;;14.48;7.80;;;;;;;;;;5093087;28;20101;-66
2023/03/08 04:18:56;;;;;;;13.32;7.47;;;;;;;;;;5094250;28;20048;-66
2023/03/08 04:21:23;;;;;;;16.50;7.82;;;;;;;;;;5093810;28;20518;-66
2023/03/08 04:23:51;;;;;;;14.63;8.07;;;;;;;;;;5094266;28;20051;-66
2023/03/08 04:26:18;;;;;;;17.58;7.30;;;;;;;;;;5094232;28;20044;-66
2023/03/08 04:28:45;;;;;;;13.52;7.65;;;;;;;;;;5093967;28;20072;-66
2023/03/08 04:31:13;;;;;;;18.98;7.88;;;;;;;;;;5094015;28;20044;-66
2023/03/08 04:33:39;;;;;;;17.55;8.50;;;;;;;;;;5093246;28;20056;-66
2023/03/08 04:36:06;;;;;;;15.95;8.02;;;;;;;;;;5093824;28;20056;-66
2023/03/08 04:38:33;;;;;;;16.08;8.02;;;;;;;;;;5093233;28;20052;-66
2023/03/08 04:41:09;;;;;;;14.43;8.02;;;;;;;;;;5093422;28;20051;-66
2023/03/08 04:43:36;;;;;;;15.65;7.97;;;;;;;;;;5093949;28;20052;-66
2023/03/08 04:46:03;;;;;;;15.73;7.53;;;;;;;;;;5093292;28;20052;-66
2023/03/08 04:48:30;;;;;;;16.75;7.97;;;;;;;;;;5093707;28;20479;-66
2023/03/08 04:50:59;;;;;;;15.93;8.30;;;;;;;;;;5093303;28;20044;-66
2023/03/08 04:53:27;;;;;;;16.63;8.40;;;;;;;;;;5093672;28;20047;-67
2023/03/08 04:55:54;;;;;;;15.45;8.48;;;;;;;;;;5093229;28;20040;-66
2023/03/08 04:58:22;;;;;;;13.57;7.72;;;;;;;;;;5094405;28;20242;-67
2023/03/08 05:00:49;;;;;;;15.60;8.13;;;;;;;;;;5093570;28;20051;-66
2023/03/08 05:03:16;;;;;;;18.02;8.15;;;;;;;;;;5093536;28;20403;-66
2023/03/08 05:05:46;;;;;;;15.73;7.68;;;;;;;;;;5093853;28;20134;-66
2023/03/08 05:08:13;;;;;;;17.60;7.95;;;;;;;;;;5093485;28;20515;-66
2023/03/08 05:10:40;;;;;;;14.00;7.72;;;;;;;;;;5093206;28;20044;-66
2023/03/08 05:13:07;;;;;;;18.10;8.98;;;;;;;;;;5092087;28;20488;-66
2023/03/08 05:15:34;;;;;;;16.45;8.52;;;;;;;;;;5093191;28;20609;-66
2023/03/08 05:18:01;;;;;;;18.25;8.85;;;;;;;;;;5092818;28;20074;-66
2023/03/08 05:20:28;;;;;;;16.25;8.23;;;;;;;;;;5092837;28;20130;-66
2023/03/08 05:22:54;;;;;;;18.65;8.32;;;;;;;;;;5092935;28;20060;-66
2023/03/08 05:25:21;;;;;;;17.45;8.43;;;;;;;;;;5093200;28;20052;-66
2023/03/08 05:27:47;;;;;;;15.65;8.52;;;;;;;;;;5092529;28;20437;-66
2023/03/08 05:30:14;;;;;;;15.60;8.43;;;;;;;;;;5093047;28;20054;-66
2023/03/08 05:32:42;;;;;;;16.33;8.32;;;;;;;;;;5092960;28;20384;-67
2023/03/08 05:35:09;;;;;;;14.82;8.32;;;;;;;;;;5092954;28;20048;-66
2023/03/08 05:37:35;;;;;;;15.57;8.80;;;;;;;;;;5092335;28;20048;-66
2023/03/08 05:40:04;;;;;;;14.68;7.43;;;;;;;;;;5092357;28;20044;-66
2023/03/08 05:42:31;;;;;;;15.18;8.05;;;;;;;;;;5092805;28;20743;-66
2023/03/08 05:44:57;;;;;;;16.05;8.23;;;;;;;;;;5092744;28;20043;-67
2023/03/08 05:47:24;;;;;;;14.48;7.88;;;;;;;;;;5092155;28;20040;-67
2023/03/08 05:49:52;;;;;;;15.18;7.90;;;;;;;;;;5092635;28;20050;-66
2023/03/08 05:52:18;;;;;;;17.52;7.97;;;;;;;;;;5092108;28;20048;-67
2023/03/08 05:54:45;;;;;;;15.88;7.53;;;;;;;;;;5092542;28;20040;-67
2023/03/08 05:57:12;;;;;;;16.33;7.68;;;;;;;;;;5092073;28;20046;-67
2023/03/08 05:59:38;;;;;;;14.10;7.75;;;;;;;;;;5109339;28;20058;-67
2023/03/08 06:02:05;;;;;;;14.35;7.65;;;;;;;;;;5112887;28;20046;-67
2023/03/08 06:04:31;;;;;;;13.82;7.15;;;;;;;;;;5112154;28;20070;-67
2023/03/08 06:06:59;;;;;;;14.00;7.72;;;;;;;;;;5113218;28;20054;-67
2023/03/08 06:09:26;;;;;;;13.35;7.45;;;;;;;;;;5112507;28;20040;-67
2023/03/08 06:11:52;;;;;;;13.90;7.47;;;;;;;;;;5112813;28;20048;-67
2023/03/08 06:14:19;;;;;;;15.02;7.60;;;;;;;;;;5112557;28;20054;-67
2023/03/08 06:16:47;;;;;;;15.60;7.82;;;;;;;;;;5112660;28;20051;-67
2023/03/08 06:19:14;;;;;;;12.50;7.22;;;;;;;;;;5112565;28;20495;-67
2023/03/08 06:21:40;;;;;;;13.10;7.32;;;;;;;;;;5112387;28;20043;-67
2023/03/08 06:24:08;;;;;;;14.95;7.28;;;;;;;;;;5110999;28;20403;-67
2023/03/08 06:26:34;;;;;;;12.93;7.93;;;;;;;;;;5112667;28;20410;-66
2023/03/08 06:29:01;;;;;;;16.90;8.07;;;;;;;;;;5111958;28;20039;-67
2023/03/08 06:31:28;;;;;;;14.05;7.90;;;;;;;;;;5112630;28;20050;-67
2023/03/08 06:33:54;;;;;;;14.93;7.82;;;;;;;;;;5112483;28;20048;-67
2023/03/08 06:36:21;;;;;;;15.77;8.32;;;;;;;;;;5113225;28;20397;-67
2023/03/08 06:38:48;;;;;;;16.88;9.13;;;;;;;;;;5112749;28;20047;-67
2023/03/08 06:41:19;;;;;;;18.40;9.00;;;;;;;;;;5112488;28;20040;-67
2023/03/08 06:43:45;;;;;;;17.63;8.45;;;;;;;;;;5112689;28;20048;-67
2023/03/08 06:46:15;;;;;;;17.83;9.05;;;;;;;;;;5112041;28;20051;-67
2023/03/08 06:48:42;;;;;;;19.15;9.35;;;;;;;;;;5112427;28;20092;-67
2023/03/08 06:51:09;;;;;;;19.00;9.27;;;;;;;;;;5112186;28;20483;-67
2023/03/08 06:53:36;;;;;;;19.83;11.13;;;;;;;;;;5112666;28;20475;-67
2023/03/08 06:56:03;;;;;;;21.05;9.93;;;;;;;;;;5112583;28;20418;-67
2023/03/08 06:58:32;;;;;;;18.73;9.80;;;;;;;;;;5112799;28;20204;-67
2023/03/08 07:00:59;;;;;;;23.42;10.63;;;;;;;;;;5112129;28;20044;-67
2023/03/08 07:03:26;;;;;;;20.05;10.35;;;;;;;;;;5112746;28;20051;-67
2023/03/08 07:05:57;;;;;;;17.58;9.65;;;;;;;;;;5112459;28;20055;-67
2023/03/08 07:08:24;;;;;;;20.83;10.90;;;;;;;;;;5112551;28;20525;-67
2023/03/08 07:10:50;;;;;;;19.77;9.90;;;;;;;;;;5112853;28;20490;-67
2023/03/08 07:13:17;;;;;;;23.10;10.68;;;;;;;;;;5111993;28;20054;-67
2023/03/08 07:15:45;;;;;;;20.50;10.70;;;;;;;;;;5112272;28;20428;-67
2023/03/08 07:18:11;;;;;;;22.88;11.57;;;;;;;;;;5112918;28;20040;-67
2023/03/08 07:20:38;;;;;;;19.30;11.00;;;;;;;;;;5112618;28;20403;-67
2023/03/08 07:23:04;;;;;;;20.83;10.88;;;;;;;;;;5112828;28;20509;-67
2023/03/08 07:25:31;;;;;;;20.30;10.68;;;;;;;;;;5112154;28;20044;-67
2023/03/08 07:27:58;;;;;;;20.55;11.32;;;;;;;;;;5112529;28;20048;-67
2023/03/08 07:30:25;;;;;;;18.88;10.77;;;;;;;;;;5111896;28;20401;-67
2023/03/08 07:32:54;;;;;;;24.50;11.90;;;;;;;;;;5112002;28;20043;-67
2023/03/08 07:35:20;;;;;;;20.80;10.43;;;;;;;;;;5112391;28;20040;-67
2023/03/08 07:37:48;;;;;;;21.02;11.48;;;;;;;;;;5116369;28;20046;-67
2023/03/08 07:40:16;;;;;;;23.50;12.15;;;;;;;;;;5116416;28;20043;-67
2023/03/08 07:42:43;;;;;;;22.27;11.52;;;;;;;;;;5115866;28;20501;-67
2023/03/08 07:45:12;;;;;;;19.90;10.98;;;;;;;;;;5116259;28;20051;-67
2023/03/08 07:47:39;;;;;;;18.67;10.68;;;;;;;;;;5115948;28;20400;-67
2023/03/08 07:50:09;;;;;;;20.90;11.00;;;;;;;;;;5115649;28;20043;-66
2023/03/08 07:52:35;;;;;;;18.13;9.85;;;;;;;;;;5115972;28;20043;-66
2023/03/08 07:55:02;;;;;;;21.10;10.55;;;;;;;;;;5115511;28;20050;-66
2023/03/08 07:57:28;;;;;;;22.75;11.63;;;;;;;;;;5115019;28;20039;-66
2023/03/08 07:59:55;;;;;;;23.45;11.77;;;;;;;;;;5115643;28;20479;-66
2023/03/08 08:02:21;;;;;;;22.27;10.90;;;;;;;;;;5115222;28;20479;-66
2023/03/08 08:04:49;;;;;;;18.20;9.70;;;;;;;;;;5115114;28;20483;-66
2023/03/08 08:07:17;;;;;;;20.52;10.70;;;;;;;;;;5114543;28;20069;-66
2023/03/08 08:09:44;;;;;;;18.95;11.48;;;;;;;;;;5115754;28;20043;-66
2023/03/08 08:12:10;;;;;;;18.95;10.07;;;;;;;;;;5115671;28;20044;-66
2023/03/08 08:14:37;;;;;;;17.00;9.85;;;;;;;;;;5115761;28;20043;-66
2023/03/08 08:17:04;;;;;;;17.75;9.50;;;;;;;;;;5116784;28;20418;-66
2023/03/08 08:19:31;;;;;;;16.75;9.75;;;;;;;;;;5116071;28;20040;-66
2023/03/08 08:21:58;;;;;;;15.00;9.38;;;;;;;;;;5116358;28;20047;-66
2023/03/08 08:24:26;;;;;;;17.92;9.77;;;;;;;;;;5115675;28;20048;-66
2023/03/08 08:26:52;;;;;;;15.75;9.13;;;;;;;;;;5116146;28;20066;-66
2023/03/08 08:29:19;;;;;;;18.73;10.57;;;;;;;;;;5115809;28;20479;-66
2023/03/08 08:31:45;;;;;;;15.98;9.23;;;;;;;;;;5115753;28;20376;-66
2023/03/08 08:34:12;;;;;;;16.00;9.30;;;;;;;;;;5115556;28;20048;-66
2023/03/08 08:36:38;;;;;;;14.57;8.93;;;;;;;;;;5115619;28;20475;-66
2023/03/08 08:39:05;;;;;;;15.30;8.98;;;;;;;;;;5115665;28;20382;-66
2023/03/08 08:41:33;;;;;;;15.13;9.00;;;;;;;;;;5115483;28;20040;-66
2023/03/08 08:43:59;;;;;;;16.48;9.80;;;;;;;;;;5114535;28;20039;-66
2023/03/08 08:46:27;;;;;;;15.65;8.57;;;;;;;;;;5115230;28;20487;-66
2023/03/08 08:48:54;;;;;;;19.10;9.35;;;;;;;;;;5113978;28;20047;-66
2023/03/08 08:51:21;;;;;;;17.45;8.75;;;;;;;;;;5115301;28;20045;-66
2023/03/08 08:53:47;;;;;;;16.48;8.43;;;;;;;;;;5114656;28;20136;-66
2023/03/08 08:56:16;;;;;;;12.40;7.90;;;;;;;;;;5114828;28;20051;-66
2023/03/08 08:58:45;;;;;;;13.63;8.15;;;;;;;;;;5114776;28;20043;-66
2023/03/08 09:01:15;;;;;;;11.57;6.55;;;;;;;;;;5114793;28;20556;-66
2023/03/08 09:03:42;;;;;;;13.00;7.53;;;;;;;;;;5114708;28;20143;-66
2023/03/08 09:06:08;;;;;;;12.57;7.00;;;;;;;;;;5114677;28;20131;-66
2023/03/08 09:08:35;;;;;;;14.02;7.85;;;;;;;;;;5114797;28;20395;-66
2023/03/08 09:11:06;;;;;;;13.43;7.53;;;;;;;;;;5115425;28;20502;-67
2023/03/08 09:13:33;;;;;;;13.27;7.75;;;;;;;;;;5115102;28;20422;-66
2023/03/08 09:16:01;;;;;;;12.93;7.85;;;;;;;;;;5114505;28;20039;-66
2023/03/08 09:18:30;;;;;;;14.55;7.72;;;;;;;;;;5114856;28;20046;-66
2023/03/08 09:20:57;;;;;;;13.20;7.40;;;;;;;;;;5113476;28;20131;-66
2023/03/08 09:23:23;;;;;;;14.25;7.85;;;;;;;;;;5114877;28;20386;-66
2023/03/08 09:25:57;;;;;;;12.18;7.30;;;;;;;;;;5114096;28;20498;-66
2023/03/08 09:28:24;;;;;;;13.65;8.13;;;;;;;;;;5114252;28;20053;-66
2023/03/08 09:30:50;;;;;;;13.05;7.72;;;;;;;;;;5115315;28;20403;-66
2023/03/08 09:33:18;;;;;;;14.02;7.68;;;;;;;;;;5114676;28;20051;-66
2023/03/08 09:35:54;;;;;;;13.20;7.32;;;;;;;;;;5113648;28;20047;-67
2023/03/08 09:38:21;;;;;;;11.77;6.57;;;;;;;;;;5114169;28;20410;-67
2023/03/08 09:40:58;;;;;;;12.75;7.38;;;;;;;;;;5112991;28;20047;-66
2023/03/08 09:43:36;;;;;;;14.02;7.50;;;;;;;;;;5114165;28;20681;-67
2023/03/08 09:46:03;;;;;;;11.30;6.75;;;;;;;;;;5113631;28;20139;-67
2023/03/08 09:48:32;;;;;;;11.32;7.07;;;;;;;;;;5113837;28;20052;-66
2023/03/08 09:51:03;;;;;;;12.50;7.00;;;;;;;;;;5113082;28;20054;-66
2023/03/08 09:53:35;;;;;;;12.13;6.82;;;;;;;;;;5112854;28;20044;-67
2023/03/08 09:56:05;;;;;;;13.32;7.85;;;;;;;;;;5112394;28;20062;-66
2023/03/08 09:58:34;;;;;;;13.07;7.57;;;;;;;;;;5112792;28;20048;-67
2023/03/08 10:01:14;;;;;;;14.05;7.32;;;;;;;;;;5112516;28;20049;-66
2023/03/08 10:03:56;;;;;;;11.45;6.85;;;;;;;;;;5113043;28;20054;-67
2023/03/08 10:06:31;;;;;;;9.77;6.28;;;;;;;;;;5113435;28;20457;-66
2023/03/08 10:09:03;;;;;;;10.88;6.68;;;;;;;;;;5111767;28;20080;-66
2023/03/08 10:11:36;;;;;;;9.63;7.13;;;;;;;;;;5110884;28;20047;-66
2023/03/08 10:14:11;;;;;;;10.38;6.53;;;;;;;;;;5109828;28;20046;-66
2023/03/08 10:16:43;;;;;;;9.30;6.22;;;;;;;;;;5110694;28;20048;-66
2023/03/08 10:19:17;;;;;;;8.57;6.10;;;;;;;;;;5111334;28;20236;-66
2023/03/08 10:21:44;;;;;;;11.57;6.95;;;;;;;;;;5110833;28;20080;-66
2023/03/08 10:24:15;;;;;;;8.43;6.28;;;;;;;;;;5110691;28;20059;-66
2023/03/08 10:26:43;;;;;;;8.75;5.90;;;;;;;;;;5110913;28;20050;-66
2023/03/08 10:29:11;;;;;;;7.40;6.15;;;;;;;;;;5110846;28;20044;-66
2023/03/08 10:31:38;;;;;;;10.05;5.90;;;;;;;;;;5110906;28;20048;-66
2023/03/08 10:34:13;;;;;;;8.98;6.07;;;;;;;;;;5110930;28;20055;-66
2023/03/08 10:36:52;;;;;;;9.20;6.28;;;;;;;;;;5095101;28;20040;-66
2023/03/08 10:39:20;;;;;;;9.88;6.28;;;;;;;;;;5090890;28;20295;-66
2023/03/08 10:41:51;;;;;;;11.10;6.70;;;;;;;;;;5090476;28;20058;-66
2023/03/08 10:44:32;;;;;;;9.70;5.90;;;;;;;;;;5090667;28;20077;-66
2023/03/08 10:46:58;;;;;;;12.02;7.13;;;;;;;;;;5090092;28;20083;-66
2023/03/08 10:49:26;;;;;;;10.52;6.65;;;;;;;;;;5090346;28;20385;-66
2023/03/08 10:51:55;;;;;;;8.98;6.65;;;;;;;;;;5090497;28;20044;-66
2023/03/08 10:54:22;;;;;;;10.05;6.57;;;;;;;;;;5089831;28;20075;-66
2023/03/08 10:56:54;;;;;;;10.30;6.18;;;;;;;;;;5090155;28;20048;-66
2023/03/08 10:59:26;;;;;;;10.05;6.32;;;;;;;;;;5089739;28;20055;-66
2023/03/08 11:01:55;;;;;;;9.80;6.07;;;;;;;;;;5090704;28;20066;-66
2023/03/08 11:04:23;;;;;;;10.15;6.45;;;;;;;;;;5102420;28;20055;-66
2023/03/08 11:06:51;;;;;;;8.15;5.70;;;;;;;;;;5094402;28;20407;-66
2023/03/08 11:09:24;;;;;;;9.32;5.93;;;;;;;;;;5109881;28;20495;-66
2023/03/08 11:11:51;;;;;;;9.05;5.68;;;;;;;;;;5110161;28;20089;-66
2023/03/08 11:14:18;;;;;;;9.13;6.22;;;;;;;;;;5113987;28;20059;-66
2023/03/08 11:17:15;;;;;;;9.65;6.07;;;;;;;;;;5114729;28;20046;-66
2023/03/08 11:19:58;;;;;;;9.35;5.95;;;;;;;;;;5097076;28;20442;-66
2023/03/08 11:22:35;;;;;;;7.67;4.90;;;;;;;;;;5114520;28;20537;-66
2023/03/08 11:25:12;;;;;;;7.53;4.57;;;;;;;;;;5114274;28;20630;-66
2023/03/08 11:27:56;;;;;;;8.77;5.68;;;;;;;;;;5114373;28;20082;-66
2023/03/08 11:30:34;;;;;;;7.38;4.82;;;;;;;;;;5113894;28;20044;-66
2023/03/08 11:33:41;;;;;;;6.57;4.40;;;;;;;;;;5114037;28;20050;-66
2023/03/08 11:36:15;;;;;;;9.52;4.72;;;;;;;;;;5045527;28;20059;-66
2023/03/08 11:38:47;;;;;;;6.70;4.57;;;;;;;;;;5094175;28;20044;-66
2023/03/08 11:41:21;;;;;;;6.63;4.82;;;;;;;;;;5093438;28;20131;-66
2023/03/08 11:43:59;;;;;;;6.43;3.95;;;;;;;;;;5094120;28;20052;-66
2023/03/08 11:46:32;;;;;;;7.32;4.43;;;;;;;;;;5103402;28;20048;-66
2023/03/08 11:49:15;;;;;;;7.40;4.55;;;;;;;;;;5113964;28;20356;-66
2023/03/08 11:51:47;;;;;;;7.43;4.95;;;;;;;;;;5113741;28;20043;-66
2023/03/08 11:54:35;;;;;;;6.10;4.45;;;;;;;;;;5113708;28;20047;-66
2023/03/08 11:57:04;;;;;;;6.32;4.60;;;;;;;;;;5113334;28;20525;-66
2023/03/08 11:59:34;;;;;;;7.43;4.90;;;;;;;;;;5113550;28;20046;-66
2023/03/08 12:02:09;;;;;;;8.20;4.80;;;;;;;;;;5113133;28;20073;-66
2023/03/08 12:04:42;;;;;;;8.07;4.63;;;;;;;;;;5113231;28;20048;-66
2023/03/08 12:07:15;;;;;;;8.32;5.00;;;;;;;;;;5111627;28;20047;-66
2023/03/08 12:09:51;;;;;;;8.13;5.15;;;;;;;;;;5113131;28;20094;-66
2023/03/08 12:12:23;;;;;;;6.72;4.78;;;;;;;;;;5112875;28;20043;-66
2023/03/08 12:14:56;;;;;;;6.60;4.72;;;;;;;;;;5113492;28;20048;-66
2023/03/08 12:17:27;;;;;;;6.75;4.43;;;;;;;;;;5113090;28;20222;-66
2023/03/08 12:19:53;;;;;;;9.05;5.25;;;;;;;;;;5113187;28;20494;-66
2023/03/08 12:22:32;;;;;;;7.13;5.22;;;;;;;;;;5111496;28;20124;-66
2023/03/08 12:25:07;;;;;;;7.80;5.03;;;;;;;;;;5112817;28;20130;-66
2023/03/08 12:27:42;;;;;;;11.93;6.57;;;;;;;;;;5107015;28;20040;-66
2023/03/08 12:30:19;;;;;;;8.52;5.40;;;;;;;;;;5092514;28;20048;-66
2023/03/08 12:32:48;;;;;;;8.05;4.57;;;;;;;;;;5094363;28;20054;-66
2023/03/08 12:35:26;;;;;;;7.47;4.32;;;;;;;;;;5096889;28;20135;-66
2023/03/08 12:37:58;;;;;;;7.80;4.60;;;;;;;;;;5112341;28;20043;-66
2023/03/08 12:40:38;;;;;;;5.68;4.15;;;;;;;;;;5112687;28;20317;-66
2023/03/08 12:43:11;;;;;;;10.32;4.55;;;;;;;;;;5095131;28;20047;-66
2023/03/08 12:45:38;;;;;;;7.18;4.60;;;;;;;;;;5092180;28;20048;-66
2023/03/08 12:48:23;;;;;;;7.18;4.70;;;;;;;;;;5094057;28;20044;-66
2023/03/08 12:51:05;;;;;;;6.45;4.25;;;;;;;;;;5114084;28;20059;-66
2023/03/08 12:53:39;;;;;;;6.47;4.40;;;;;;;;;;5115758;28;20052;-66
2023/03/08 12:56:23;;;;;;;6.95;4.00;;;;;;;;;;5115034;28;20051;-66
2023/03/08 12:58:53;;;;;;;6.45;4.22;;;;;;;;;;5113645;28;20473;-66
2023/03/08 13:01:28;;;;;;;5.45;3.72;;;;;;;;;;5113128;28;20120;-66
2023/03/08 13:03:56;;;;;;;4.68;3.50;;;;;;;;;;5113193;28;20062;-66
2023/03/08 13:06:52;;;;;;;5.95;3.55;;;;;;;;;;5114479;28;20044;-67
2023/03/08 13:09:24;;;;;;;6.85;3.90;;;;;;;;;;5106131;28;20050;-66
2023/03/08 13:12:01;;;;;;;5.15;3.65;;;;;;;;;;5117173;28;20047;-66
2023/03/08 13:14:39;;;;;;;5.65;4.32;;;;;;;;;;5112684;28;20420;-66
2023/03/08 13:17:33;;;;;;;8.90;4.70;;;;;;;;;;5112234;28;20043;-66
2023/03/08 13:20:06;;;;;;;5.97;3.75;;;;;;;;;;5111681;28;20047;-66
2023/03/08 13:22:40;;;;;;;7.70;4.82;;;;;;;;;;5112096;28;20118;-66
2023/03/08 13:25:15;;;;;;;6.28;4.70;;;;;;;;;;5111431;28;20048;-66
2023/03/08 13:27:51;;;;;;;6.53;4.53;;;;;;;;;;5111744;28;20491;-66
2023/03/08 13:30:23;;;;;;;6.13;4.38;;;;;;;;;;5111723;28;20047;-66
2023/03/08 13:32:50;;;;;;;9.20;4.18;;;;;;;;;;5111736;28;20050;-66
2023/03/08 13:35:18;;;;;;;7.55;5.05;;;;;;;;;;5111050;28;20043;-66
2023/03/08 13:37:52;;;;;;;7.57;4.43;;;;;;;;;;5111671;28;20040;-66
2023/03/08 13:40:21;;;;;;;5.70;3.85;;;;;;;;;;5111464;28;20047;-66
2023/03/08 13:42:57;;;;;;;6.15;3.90;;;;;;;;;;5111879;28;20051;-67
2023/03/08 13:45:24;;;;;;;4.90;3.05;;;;;;;;;;5112002;28;20479;-66
2023/03/08 13:47:52;;;;;;;5.82;3.40;;;;;;;;;;5104351;28;20048;-66
2023/03/08 13:50:21;;;;;;;6.05;3.78;;;;;;;;;;5091030;28;20402;-66
2023/03/08 13:52:48;;;;;;;5.50;3.28;;;;;;;;;;5091210;28;20426;-66
2023/03/08 13:55:20;;;;;;;6.53;3.05;;;;;;;;;;5091458;28;20044;-67
2023/03/08 13:57:50;;;;;;;5.47;3.25;;;;;;;;;;5091412;28;20048;-67
2023/03/08 14:00:26;;;;;;;6.75;3.55;;;;;;;;;;5091036;28;20454;-67
2023/03/08 14:02:53;;;;;;;5.43;2.90;;;;;;;;;;5090532;28;20054;-67
2023/03/08 14:05:22;;;;;;;3.53;2.53;;;;;;;;;;5090918;28;20046;-67
2023/03/08 14:08:01;;;;;;;4.07;2.15;;;;;;;;;;5090361;28;20055;-67
2023/03/08 14:10:35;;;;;;;2.00;1.77;;;;;;;;;;5091021;28;20093;-67
2023/03/08 14:13:04;;;;;;;3.10;2.10;;;;;;;;;;5090599;28;20071;-67
2023/03/08 14:15:35;;;;;;;4.80;3.20;;;;;;;;;;5091004;28;20074;-67
2023/03/08 14:18:03;;;;;;;3.88;2.15;;;;;;;;;;5092278;28;20036;-67
2023/03/08 14:20:30;;;;;;;2.55;1.70;;;;;;;;;;5090429;28;20479;-67
2023/03/08 14:22:57;;;;;;;1.98;1.42;;;;;;;;;;5090134;28;20052;-67
2023/03/08 14:25:27;;;;;;;3.83;2.38;;;;;;;;;;5090609;28;20052;-66
2023/03/08 14:27:55;;;;;;;8.93;3.80;;;;;;;;;;5090145;28;20136;-67
2023/03/08 14:30:23;;;;;;;6.93;2.95;;;;;;;;;;5090894;28;20050;-66
2023/03/08 14:33:03;;;;;;;2.83;1.60;;;;;;;;;;5090547;28;20163;-66
2023/03/08 14:35:33;;;;;;;9.75;4.18;;;;;;;;;;5090107;28;20047;-66
2023/03/08 14:38:01;;;;;;;9.95;4.20;;;;;;;;;;5090631;28;20044;-66
2023/03/08 14:40:34;;;;;;;5.50;2.65;;;;;;;;;;5090076;28;20048;-66
2023/03/08 14:43:03;;;;;;;11.55;4.03;;;;;;;;;;5090036;28;20056;-66
2023/03/08 14:45:33;;;;;;;2.63;1.70;;;;;;;;;;5089494;28;20048;-67